createdAt,value
2023-04-17T00:01:44.481Z,100811.84
2023-04-17T00:06:45.231Z,100815.31
2023-04-17T00:11:45.839Z,100815.31
2023-04-17T00:16:47.839Z,100811.88
2023-04-17T00:21:48.513Z,100814.47
2023-04-17T00:26:49.097Z,100818.78
2023-04-17T00:31:51.188Z,100813.59
2023-04-17T00:36:52.037Z,100809.25
2023-04-17T00:41:52.873Z,100814.44
2023-04-17T00:46:54.995Z,100822.22
2023-04-17T00:51:55.948Z,100812.75
2023-04-17T00:56:58.195Z,100806.69
2023-04-17T01:02:01.485Z,100810.16
2023-04-17T01:07:02.250Z,100818.78
2023-04-17T01:12:22.246Z,100808.44
2023-04-17T01:17:26.242Z,100812.75
2023-04-17T01:22:26.973Z,100813.59
2023-04-17T01:27:32.863Z,100817.06
2023-04-17T01:32:33.552Z,100814.47
2023-04-17T01:37:34.304Z,100815.34
2023-04-17T01:42:36.325Z,100821.41
2023-04-17T01:47:37.146Z,100819.66
2023-04-17T01:52:39.712Z,100817.09
2023-04-17T01:57:42.329Z,100821.44
2023-04-17T02:02:43.256Z,100818.88
2023-04-17T02:07:44.042Z,100822.31
2023-04-17T02:12:46.018Z,100825.75
2023-04-17T02:17:46.700Z,100826.63
2023-04-17T02:22:47.275Z,100821.41
2023-04-17T02:27:49.207Z,100827.50
2023-04-17T02:32:51.870Z,100829.25
2023-04-17T02:37:52.944Z,100827.50
2023-04-17T02:42:57.790Z,100823.19
2023-04-17T02:47:58.545Z,100821.41
2023-04-17T02:52:59.214Z,100822.28
2023-04-17T02:58:01.146Z,100828.34
2023-04-17T03:03:03.167Z,100823.19
2023-04-17T03:08:04.266Z,100818.84
2023-04-17T03:13:12.537Z,100819.69
2023-04-17T03:18:13.227Z,100827.50
2023-04-17T03:23:13.834Z,100822.31
2023-04-17T03:28:15.998Z,100825.81
2023-04-17T03:33:17.273Z,100831.81
2023-04-17T03:38:18.734Z,100830.97
2023-04-17T03:43:20.927Z,100828.41
2023-04-17T03:48:21.557Z,100837.03
2023-04-17T03:53:24.121Z,100839.59
2023-04-17T03:58:26.428Z,100836.16
2023-04-17T04:03:27.681Z,100843.09
2023-04-17T04:08:28.844Z,100839.66
2023-04-17T04:13:30.817Z,100843.06
2023-04-17T04:18:35.010Z,100849.19
2023-04-17T04:23:37.798Z,100850.88
2023-04-17T04:28:40.130Z,100851.75
2023-04-17T04:33:47.733Z,100856.06
2023-04-17T04:38:49.823Z,100858.69
2023-04-17T04:43:59.131Z,100864.75
2023-04-17T04:49:00.905Z,100858.66
2023-04-17T04:54:02.085Z,100853.47
2023-04-17T04:59:04.111Z,100858.69
2023-04-17T05:04:08.710Z,100866.44
2023-04-17T05:09:09.701Z,100869.06
2023-04-17T05:14:12.183Z,100872.53
2023-04-17T05:19:13.626Z,100883.75
2023-04-17T05:24:23.105Z,100881.16
2023-04-17T05:29:25.817Z,100884.63
2023-04-17T05:34:27.220Z,100890.69
2023-04-17T05:39:28.316Z,100888.09
2023-04-17T05:44:31.369Z,100891.56
2023-04-17T05:49:32.108Z,100894.16
2023-04-17T05:54:32.768Z,100901.94
2023-04-17T05:59:34.857Z,100905.38
2023-04-17T06:04:36.211Z,100913.22
2023-04-17T06:09:37.706Z,100913.19
2023-04-17T06:14:39.629Z,100914.94
2023-04-17T06:19:42.191Z,100914.06
2023-04-17T06:24:42.780Z,100917.53
2023-04-17T06:29:44.783Z,100922.72
2023-04-17T06:34:58.578Z,100922.75
2023-04-17T06:40:13.453Z,100936.56
2023-04-17T06:45:15.852Z,100938.31
2023-04-17T06:50:16.766Z,100942.63
2023-04-17T06:55:17.943Z,100949.53
2023-04-17T07:00:21.239Z,100952.16
2023-04-17T07:05:21.862Z,100958.22
2023-04-17T07:10:22.466Z,100962.53
2023-04-17T07:15:24.467Z,100966.84
2023-04-17T07:20:25.524Z,100978.97
2023-04-17T07:25:26.449Z,100977.25
2023-04-17T07:30:28.632Z,100989.38
2023-04-17T07:35:29.522Z,100990.25
2023-04-17T07:40:30.618Z,101000.63
2023-04-17T07:45:33.648Z,101006.69
2023-04-17T07:50:34.463Z,101011.03
2023-04-17T07:55:35.688Z,101013.66
2023-04-17T08:00:37.792Z,101011.03
2023-04-17T08:05:38.470Z,101017.94
2023-04-17T08:10:39.062Z,101025.78
2023-04-17T08:15:41.023Z,101025.75
2023-04-17T08:20:41.873Z,101030.97
2023-04-17T08:25:42.666Z,101040.47
2023-04-17T08:30:44.760Z,101040.41
2023-04-17T08:35:45.738Z,101049.06
2023-04-17T08:40:52.102Z,101051.75
2023-04-17T08:45:55.396Z,101053.47
2023-04-17T08:50:56.310Z,101063.84
2023-04-17T08:55:58.994Z,101064.69
2023-04-17T09:01:09.021Z,101053.44
2023-04-17T09:06:10.872Z,101069.88
2023-04-17T09:11:17.662Z,101069.06
2023-04-17T09:16:20.540Z,101068.16
2023-04-17T09:21:21.229Z,101073.31
2023-04-17T09:26:23.838Z,101076.63
2023-04-17T09:31:27.788Z,101076.41
2023-04-17T09:36:30.580Z,101075.00
2023-04-17T09:41:33.301Z,101075.88
2023-04-17T09:46:38.491Z,101072.34
2023-04-17T09:51:39.869Z,101071.38
2023-04-17T09:56:41.191Z,101075.66
2023-04-17T10:01:43.606Z,101082.59
2023-04-17T10:06:44.340Z,101085.31
2023-04-17T10:11:47.106Z,101080.25
2023-04-17T10:16:50.489Z,101085.44
2023-04-17T10:22:24.860Z,101087.22
2023-04-17T10:27:48.198Z,101088.03
2023-04-17T10:33:22.623Z,101087.97
2023-04-17T10:38:35.621Z,101091.31
2023-04-17T10:43:36.257Z,101085.19
2023-04-17T10:48:39.070Z,101079.16
2023-04-17T10:53:46.276Z,101082.72
2023-04-17T10:58:58.556Z,101085.34
2023-04-17T11:04:00.573Z,101084.53
2023-04-17T11:09:03.313Z,101086.22
2023-04-17T11:14:06.957Z,101084.56
2023-04-17T11:19:09.870Z,101086.28
2023-04-17T11:24:12.133Z,101090.63
2023-04-17T11:29:16.882Z,101089.81
2023-04-17T11:34:17.743Z,101094.97
2023-04-17T11:39:20.360Z,101088.84
2023-04-17T11:44:21.322Z,101094.97
2023-04-17T11:49:26.389Z,101098.44
2023-04-17T11:54:28.801Z,101093.97
2023-04-17T11:59:34.212Z,101093.78
2023-04-17T12:04:36.465Z,101098.97
2023-04-17T12:09:38.756Z,101099.13
2023-04-17T12:14:39.384Z,101102.75
2023-04-17T12:19:39.978Z,101096.66
2023-04-17T12:24:41.939Z,101103.66
2023-04-17T12:29:44.823Z,101103.59
2023-04-17T12:34:46.033Z,101114.84
2023-04-17T12:39:48.110Z,101111.38
2023-04-17T12:44:48.692Z,101116.66
2023-04-17T12:49:49.266Z,101112.25
2023-04-17T12:54:51.665Z,101106.09
2023-04-17T12:59:53.051Z,101117.31
2023-04-17T13:04:54.002Z,101107.72
2023-04-17T13:09:55.916Z,101113.75
2023-04-17T13:14:57.537Z,101119.06
2023-04-17T13:19:58.191Z,101116.56
2023-04-17T13:25:00.248Z,101121.78
2023-04-17T13:30:00.907Z,101119.16
2023-04-17T13:35:02.142Z,101120.91
2023-04-17T13:40:05.678Z,101124.47
2023-04-17T13:45:08.160Z,101117.47
2023-04-17T13:50:10.506Z,101118.38
2023-04-17T13:55:14.791Z,101137.44
2023-04-17T14:00:17.297Z,101122.69
2023-04-17T14:05:18.119Z,101118.34
2023-04-17T14:10:20.423Z,101124.50
2023-04-17T14:15:32.634Z,101127.94
2023-04-17T14:20:35.940Z,101123.63
2023-04-17T14:25:38.560Z,101122.75
2023-04-17T14:30:39.240Z,101125.34
2023-04-17T14:35:40.513Z,101128.84
2023-04-17T14:40:42.457Z,101124.47
2023-04-17T14:45:43.131Z,101132.22
2023-04-17T14:50:43.813Z,101126.94
2023-04-17T14:55:46.264Z,101120.97
2023-04-17T15:00:47.161Z,101129.63
2023-04-17T15:05:48.065Z,101125.28
2023-04-17T15:10:51.466Z,101131.31
2023-04-17T15:15:52.925Z,101133.03
2023-04-17T15:20:53.611Z,101137.34
2023-04-17T15:25:57.381Z,101126.94
2023-04-17T15:30:58.011Z,101144.34
2023-04-17T15:35:59.517Z,101143.50
2023-04-17T15:41:03.515Z,101143.53
2023-04-17T15:46:04.444Z,101144.41
2023-04-17T15:51:05.591Z,101158.28
2023-04-17T15:56:08.434Z,101154.81
2023-04-17T16:01:10.663Z,101161.72
2023-04-17T16:06:12.002Z,101159.13
2023-04-17T16:11:14.104Z,101159.97
2023-04-17T16:16:14.956Z,101159.13
2023-04-17T16:21:15.671Z,101166.88
2023-04-17T16:26:17.593Z,101159.94
2023-04-17T16:31:18.326Z,101159.94
2023-04-17T16:36:19.194Z,101164.22
2023-04-17T16:41:21.413Z,101172.94
2023-04-17T16:46:35.538Z,101172.84
2023-04-17T16:51:45.708Z,101171.06
2023-04-17T16:56:47.934Z,101178.91
2023-04-17T17:01:49.715Z,101176.25
2023-04-17T17:06:50.731Z,101184.94
2023-04-17T17:11:52.675Z,101183.16
2023-04-17T17:16:53.402Z,101185.75
2023-04-17T17:21:55.130Z,101189.16
2023-04-17T17:26:57.334Z,101184.00
2023-04-17T17:31:58.071Z,101185.75
2023-04-17T17:36:59.877Z,101190.03
2023-04-17T17:42:04.265Z,101190.84
2023-04-17T17:47:07.045Z,101195.19
2023-04-17T17:52:09.996Z,101194.34
2023-04-17T17:57:12.085Z,101194.34
2023-04-17T18:02:13.588Z,101200.38
2023-04-17T18:07:14.556Z,101200.31
2023-04-17T18:12:17.322Z,101211.56
2023-04-17T18:17:19.440Z,101214.22
2023-04-17T18:22:20.650Z,101217.59
2023-04-17T18:27:23.035Z,101222.84
2023-04-17T18:32:23.911Z,101216.81
2023-04-17T18:37:26.865Z,101218.53
2023-04-17T18:42:28.929Z,101225.44
2023-04-17T18:47:29.604Z,101221.13
2023-04-17T18:52:30.253Z,101229.72
2023-04-17T18:57:32.214Z,101219.34
2023-04-17T19:02:33.033Z,101229.72
2023-04-17T19:07:33.798Z,101237.56
2023-04-17T19:12:36.079Z,101231.34
2023-04-17T19:17:36.794Z,101246.84
2023-04-17T19:22:37.432Z,101245.09
2023-04-17T19:27:39.401Z,101247.72
2023-04-17T19:32:40.104Z,101238.19
2023-04-17T19:37:40.923Z,101241.72
2023-04-17T19:42:42.989Z,101245.81
2023-04-17T19:47:43.595Z,101241.50
2023-04-17T19:52:44.291Z,101244.03
2023-04-17T19:57:46.241Z,101240.69
2023-04-17T20:02:47.862Z,101240.72
2023-04-17T20:07:48.638Z,101246.84
2023-04-17T20:12:50.572Z,101251.94
2023-04-17T20:17:52.034Z,101262.34
2023-04-17T20:22:53.128Z,101252.69
2023-04-17T20:27:55.544Z,101257.00
2023-04-17T20:32:56.235Z,101249.22
2023-04-17T20:37:57.373Z,101256.19
2023-04-17T20:42:59.351Z,101247.47
2023-04-17T20:48:00.109Z,101245.66
2023-04-17T20:53:00.839Z,101239.56
2023-04-17T20:58:02.767Z,101237.75
2023-04-17T21:03:03.607Z,101239.47
2023-04-17T21:08:04.262Z,101241.28
2023-04-17T21:13:06.157Z,101246.56
2023-04-17T21:18:06.838Z,101244.81
2023-04-17T21:23:07.479Z,101237.91
2023-04-17T21:28:09.392Z,101243.16
2023-04-17T21:33:10.033Z,101240.50
2023-04-17T21:38:10.675Z,101246.56
2023-04-17T21:43:12.615Z,101240.56
2023-04-17T21:48:15.121Z,101236.19
2023-04-17T21:53:15.768Z,101240.59
2023-04-17T21:58:17.665Z,101246.69
2023-04-17T22:03:18.733Z,101243.16
2023-04-17T22:08:19.323Z,101238.00
2023-04-17T22:13:21.272Z,101244.94
2023-04-17T22:18:21.892Z,101246.72
2023-04-17T22:23:22.482Z,101245.03
2023-04-17T22:28:25.661Z,101247.56
2023-04-17T22:33:26.459Z,101245.84
2023-04-17T22:38:27.072Z,101243.22
2023-04-17T22:43:28.955Z,101242.38
2023-04-17T22:48:29.536Z,101242.28
2023-04-17T22:53:31.437Z,101241.41
2023-04-17T22:58:34.944Z,101243.09
2023-04-17T23:03:35.735Z,101241.50
2023-04-17T23:08:36.320Z,101247.56
2023-04-17T23:13:38.237Z,101232.94
2023-04-17T23:18:38.816Z,101229.41
2023-04-17T23:23:39.406Z,101237.13
2023-04-17T23:28:41.407Z,101235.47
2023-04-17T23:33:41.959Z,101231.13
2023-04-17T23:38:42.632Z,101224.34
2023-04-17T23:43:44.652Z,101231.25
2023-04-17T23:48:45.218Z,101226.13
2023-04-17T23:53:46.321Z,101226.13
2023-04-17T23:58:48.200Z,101221.84
